Terminal Aerodrome Forecast
Issued by NWS

Home | Current Version | Previous Version | Text Only | Print | Product List | Glossary On
Versions: 1 2 3 4 5 6 7 8 9 10 11 12 13 14 15 16 17 18 19 20 21
200
FTUS42 KJAX 242320
TAFVQQ
TAF
KVQQ 242320Z 2500/2524 11010G18KT P6SM SCT050
     FM250100 11004KT P6SM SCT030
     FM251400 13010KT P6SM SCT040=

USA.gov is the U.S. government's official web portal to all federal, state and local government web resources and services.